Time;durP1;ratioP1;P1;durP2;ratioP2;P2;SDS_P1;SDS_P2;PMS_P1;PMS_P2;Temp;Humidity;BMP_temperature;BMP_pressure;BME280_temperature;BME280_humidity;BME280_pressure;Samples;Min_cycle;Max_cycle;Signal;HPM_P1;HPM_P2
2022/04/02 00:00:57;;;;;;;10.93;3.70;;;;;;;0.92;73.06;101430.88;5059307;28;20091;-78
2022/04/02 00:03:23;;;;;;;7.00;4.00;;;;;;;0.94;72.80;101439.56;5059129;28;20388;-80
2022/04/02 00:05:48;;;;;;;5.83;3.80;;;;;;;0.90;73.09;101428.34;5059429;28;20036;-77
2022/04/02 00:08:14;;;;;;;6.33;3.57;;;;;;;0.94;72.89;101445.75;5050944;28;20072;-82
2022/04/02 00:10:40;;;;;;;7.07;3.73;;;;;;;0.86;72.56;101428.72;5059401;28;20121;-81
2022/04/02 00:13:05;;;;;;;6.43;3.50;;;;;;;0.92;72.53;101445.03;5059270;28;20038;-81
2022/04/02 00:15:30;;;;;;;8.30;3.80;;;;;;;0.87;72.66;101433.06;5059142;28;20040;-82
2022/04/02 00:17:56;;;;;;;5.87;3.50;;;;;;;0.88;72.56;101446.28;5059052;28;20698;-83
2022/04/02 00:20:21;;;;;;;7.30;3.60;;;;;;;0.91;72.87;101447.84;5059493;28;20780;-82
2022/04/02 00:25:32;;;;;;;7.33;3.77;;;;;;;0.90;72.92;101449.69;5058543;28;20832;-80
2022/04/02 00:27:57;;;;;;;6.73;3.53;;;;;;;0.80;73.30;101436.31;5059364;28;20440;-78
2022/04/02 00:30:23;;;;;;;7.37;3.50;;;;;;;0.88;72.79;101453.44;5073821;28;20600;-78
2022/04/02 00:32:48;;;;;;;5.97;3.57;;;;;;;0.86;72.71;101450.06;5058449;28;20102;-78
2022/04/02 00:35:14;;;;;;;5.93;3.57;;;;;;;0.81;72.41;101448.63;5055690;28;20062;-78
2022/04/02 00:37:40;;;;;;;8.70;4.07;;;;;;;0.78;72.79;101440.91;5056488;28;20046;-81
2022/04/02 00:40:06;;;;;;;6.73;3.70;;;;;;;0.73;72.62;101432.44;5058124;28;20063;-80
2022/04/02 00:42:31;;;;;;;5.00;3.47;;;;;;;0.83;72.38;101448.53;5058766;28;20102;-84
2022/04/02 00:44:56;;;;;;;5.43;3.70;;;;;;;0.65;72.59;101418.94;5059052;28;20056;-83
2022/04/02 00:47:22;;;;;;;6.70;3.30;;;;;;;0.73;72.44;101432.44;5058410;28;20044;-78
2022/04/02 00:49:47;;;;;;;8.07;3.60;;;;;;;0.73;72.94;101427.13;5058732;28;20528;-78
2022/04/02 00:52:13;;;;;;;5.80;3.53;;;;;;;0.80;72.98;101436.31;5071453;28;20036;-80
2022/04/02 00:54:39;;;;;;;5.90;3.37;;;;;;;0.78;72.97;101438.25;5073760;28;20378;-82
2022/04/02 00:57:05;;;;;;;5.60;3.47;;;;;;;0.81;71.96;101440.63;5073887;28;20040;-82
2022/04/02 00:59:30;;;;;;;5.37;3.30;;;;;;;0.66;72.68;101423.31;5058331;28;20298;-82
2022/04/02 01:01:56;;;;;;;6.27;3.53;;;;;;;0.66;72.90;101429.47;5058474;28;20048;-84
2022/04/02 01:04:22;;;;;;;7.63;3.30;;;;;;;0.73;72.78;101445.78;5073789;28;21515;-80
2022/04/02 01:06:47;;;;;;;6.80;3.77;;;;;;;0.66;72.54;101437.47;5062775;28;21251;-80
2022/04/02 01:09:13;;;;;;;6.47;3.50;;;;;;;0.71;72.69;101438.91;5060102;28;20037;-82
2022/04/02 01:11:43;;;;;;;8.03;3.70;;;;;;;0.66;72.20;101436.63;5062386;28;20044;-79
2022/04/02 01:14:10;;;;;;;7.23;3.47;;;;;;;0.71;71.97;101446.91;5062708;28;20399;-82
2022/04/02 01:16:36;;;;;;;5.87;3.67;;;;;;;0.60;72.29;101429.16;5062443;28;20278;-78
2022/04/02 01:19:01;;;;;;;4.53;3.33;;;;;;;0.63;72.22;101444.91;5060256;28;20302;-84
2022/04/02 01:21:28;;;;;;;8.80;3.77;;;;;;;0.64;72.05;101455.44;5061984;28;20067;-80
2022/04/02 01:23:55;;;;;;;4.73;3.50;;;;;;;0.61;72.62;101450.38;5062697;28;20039;-81
2022/04/02 01:26:20;;;;;;;5.93;3.40;;;;;;;0.65;72.26;101456.28;5062132;28;20343;-78
2022/04/02 01:28:53;;;;;;;6.67;3.87;;;;;;;0.61;72.46;101444.19;5062841;28;21625;-77
2022/04/02 01:31:19;;;;;;;6.53;3.63;;;;;;;0.52;72.15;101423.63;5062022;28;20364;-81
2022/04/02 01:33:45;;;;;;;7.00;3.63;;;;;;;0.67;71.55;101454.34;5062664;28;20287;-83
2022/04/02 01:36:11;;;;;;;6.37;3.53;;;;;;;0.67;72.22;101449.00;5061694;28;20317;-81
2022/04/02 01:38:36;;;;;;;5.30;3.30;;;;;;;0.61;72.57;101438.84;5062082;28;20055;-79
2022/04/02 01:41:02;;;;;;;8.40;3.57;;;;;;;0.60;73.00;101429.16;5076890;28;20101;-82
2022/04/02 01:43:27;;;;;;;7.77;3.83;;;;;;;0.70;72.76;101442.56;5074835;28;21464;-79
2022/04/02 01:45:54;;;;;;;4.27;3.20;;;;;;;0.62;72.26;101429.88;5059339;28;20040;-78
2022/04/02 01:48:20;;;;;;;6.20;3.37;;;;;;;0.69;72.03;101444.38;5061983;28;20060;-82
2022/04/02 01:50:45;;;;;;;6.20;3.50;;;;;;;0.69;71.94;101435.53;5061704;28;20873;-83
2022/04/02 01:53:11;;;;;;;6.50;3.50;;;;;;;0.70;71.27;101451.41;5062120;28;20036;-83
2022/04/02 01:55:36;;;;;;;5.97;3.67;;;;;;;0.59;71.71;101435.47;5061335;28;20088;-80
2022/04/02 01:58:02;;;;;;;6.33;3.40;;;;;;;0.67;71.39;101455.16;5061648;28;20032;-82
2022/04/02 02:00:27;;;;;;;7.13;3.30;;;;;;;0.58;71.43;101434.63;5061420;28;20046;-82
2022/04/02 02:02:52;;;;;;;7.57;3.60;;;;;;;0.64;72.37;101455.44;5058858;28;20043;-81
2022/04/02 02:05:18;;;;;;;4.47;3.40;;;;;;;0.60;72.45;101454.00;5059063;28;20082;-82
2022/04/02 02:07:50;;;;;;;7.40;3.70;;;;;;;0.61;72.15;101449.50;5074634;28;20394;-82
2022/04/02 02:10:16;;;;;;;5.10;3.40;;;;;;;0.60;72.22;101453.16;5061384;28;20086;-81
2022/04/02 02:12:42;;;;;;;7.57;3.60;;;;;;;0.57;72.39;101456.94;5061264;28;20287;-79
2022/04/02 02:15:08;;;;;;;5.30;3.60;;;;;;;0.55;72.20;101455.41;5060412;28;22337;-79
2022/04/02 02:17:33;;;;;;;6.90;4.00;;;;;;;0.48;72.18;101455.91;5061239;28;20292;-79
2022/04/02 02:19:59;;;;;;;6.00;3.40;;;;;;;0.46;72.58;101457.88;5060961;28;20310;-78
2022/04/02 02:22:24;;;;;;;5.83;3.50;;;;;;;0.49;73.12;101462.94;5060602;28;20067;-80
2022/04/02 02:24:50;;;;;;;4.40;3.23;;;;;;;0.40;72.76;101447.72;5076746;28;20535;-78
2022/04/02 02:27:15;;;;;;;6.67;3.60;;;;;;;0.45;72.68;101461.50;5060620;28;20039;-78
2022/04/02 02:29:40;;;;;;;4.87;3.50;;;;;;;0.46;72.48;101465.00;5061254;28;20040;-78
2022/04/02 02:32:06;;;;;;;5.67;3.40;;;;;;;0.46;71.81;101465.88;5060859;28;20047;-79
2022/04/02 02:37:16;;;;;;;6.93;3.50;;;;;;;0.37;72.97;101461.31;5074062;28;20093;-84
2022/04/02 02:39:42;;;;;;;8.47;3.60;;;;;;;0.43;72.39;101474.09;5060986;28;20040;-87
2022/04/02 02:42:08;;;;;;;6.60;3.50;;;;;;;0.45;71.96;101477.50;5058001;28;20041;-83
2022/04/02 02:44:33;;;;;;;7.77;3.47;;;;;;;0.39;71.95;101467.34;5061280;28;20298;-81
2022/04/02 02:46:58;;;;;;;5.03;3.40;;;;;;;0.45;71.81;101482.84;5060717;28;20372;-82
2022/04/02 02:49:24;;;;;;;5.67;3.30;;;;;;;0.44;71.73;101481.13;5058033;28;20036;-83
2022/04/02 02:51:50;;;;;;;6.50;3.60;;;;;;;0.34;72.57;101474.91;5060498;28;20029;-81
2022/04/02 02:54:15;;;;;;;5.13;3.23;;;;;;;0.37;73.12;101474.63;5060622;28;20133;-80
2022/04/02 02:56:41;;;;;;;5.27;3.47;;;;;;;0.37;73.15;101477.31;5060565;28;20901;-78
2022/04/02 02:59:06;;;;;;;5.50;3.50;;;;;;;0.28;72.24;101476.25;5075776;28;20078;-79
2022/04/02 03:01:32;;;;;;;4.67;3.20;;;;;;;0.36;71.59;101462.28;5057973;28;20036;-81
2022/04/02 03:03:57;;;;;;;4.77;2.90;;;;;;;0.39;69.69;101472.66;5058059;28;20044;-78
2022/04/02 03:06:23;;;;;;;5.40;3.10;;;;;;;0.29;70.40;101455.78;5075088;28;20040;-77
2022/04/02 03:08:48;;;;;;;3.47;2.90;;;;;;;0.33;69.41;101451.88;5059023;28;20094;-77
2022/04/02 03:11:14;;;;;;;4.53;2.83;;;;;;;0.26;70.42;101453.34;5059217;28;20036;-79
2022/04/02 03:13:39;;;;;;;5.20;3.17;;;;;;;0.34;71.32;101469.56;5060236;28;20242;-80
2022/04/02 03:16:05;;;;;;;5.87;3.47;;;;;;;0.29;72.17;101466.44;5059999;28;20051;-79
2022/04/02 03:18:30;;;;;;;5.03;3.40;;;;;;;0.23;72.45;101461.63;5060974;28;20167;-85
2022/04/02 03:20:55;;;;;;;4.57;3.20;;;;;;;0.22;72.23;101462.59;5059620;28;21536;-80
2022/04/02 03:23:21;;;;;;;5.57;3.40;;;;;;;0.19;72.36;101460.19;5060063;28;22260;-78
2022/04/02 03:25:47;;;;;;;7.23;3.30;;;;;;;0.14;72.26;101463.25;5068492;28;20079;-80
2022/04/02 03:28:13;;;;;;;9.03;3.47;;;;;;;0.08;71.88;101469.94;5059927;28;20426;-84
2022/04/02 03:30:39;;;;;;;5.27;3.30;;;;;;;0.03;72.58;101464.13;5060070;28;20286;-82
2022/04/02 03:33:04;;;;;;;6.87;3.80;;;;;;;0.06;72.75;101468.38;5059580;28;20665;-82
2022/04/02 03:35:30;;;;;;;6.77;3.47;;;;;;;0.01;72.79;101462.56;5059788;28;20048;-82
2022/04/02 03:37:56;;;;;;;4.63;3.30;;;;;;;0.05;72.64;101483.50;5059145;28;20051;-81
2022/04/02 03:40:24;;;;;;;5.40;3.50;;;;;;;0.01;72.75;101476.72;5059283;28;20310;-82
2022/04/02 03:42:50;;;;;;;7.63;3.40;;;;;;;-0.02;73.14;101475.16;5059742;28;20032;-82
2022/04/02 03:45:19;;;;;;;7.50;3.30;;;;;;;0.04;73.36;101484.50;5059725;28;20332;-78
2022/04/02 03:47:46;;;;;;;6.37;3.60;;;;;;;0.16;72.97;101506.59;5059901;28;20564;-78
2022/04/02 03:50:12;;;;;;;5.80;3.60;;;;;;;-0.04;73.17;101478.91;5075015;28;20302;-81
2022/04/02 03:52:38;;;;;;;7.50;3.90;;;;;;;-0.15;73.32;101474.50;5074693;28;20361;-80
2022/04/02 03:55:05;;;;;;;6.47;3.83;;;;;;;0.06;73.39;101498.53;5059319;28;20293;-80
2022/04/02 03:57:31;;;;;;;6.27;3.77;;;;;;;0.10;73.51;101515.09;5059619;28;20072;-82
2022/04/02 03:59:57;;;;;;;8.23;4.00;;;;;;;0.11;73.23;101516.78;5059147;28;21132;-82
2022/04/02 04:02:22;;;;;;;5.83;3.50;;;;;;;0.01;73.32;101503.38;5058761;28;20351;-82
2022/04/02 04:04:47;;;;;;;6.43;3.53;;;;;;;-0.01;73.52;101500.84;5058737;28;20062;-83
2022/04/02 04:07:14;;;;;;;5.60;3.70;;;;;;;0.06;73.29;101519.84;5058781;28;20040;-83
2022/04/02 04:09:42;;;;;;;9.20;3.70;;;;;;;-0.04;73.60;101514.41;5059542;28;20025;-79
2022/04/02 04:12:10;;;;;;;8.93;4.00;;;;;;;-0.01;73.40;101521.31;5057967;28;20290;-79
2022/04/02 04:14:35;;;;;;;5.37;3.40;;;;;;;-0.06;73.63;101515.50;5058075;28;20600;-83
2022/04/02 04:17:01;;;;;;;5.90;3.67;;;;;;;-0.05;73.64;101519.88;5057503;28;20309;-83
2022/04/02 04:19:26;;;;;;;7.07;3.50;;;;;;;-0.05;73.92;101525.22;5059517;28;20036;-83
2022/04/02 04:21:53;;;;;;;6.33;3.60;;;;;;;-0.04;73.40;101526.88;5059102;28;20125;-82
2022/04/02 04:24:19;;;;;;;7.00;3.40;;;;;;;-0.10;73.45;101522.06;5058902;28;20543;-80
2022/04/02 04:26:44;;;;;;;7.03;3.60;;;;;;;-0.02;73.45;101530.28;5058804;28;20351;-84
2022/04/02 04:29:12;;;;;;;6.80;3.77;;;;;;;-0.14;73.67;101509.97;5059391;28;20640;-78
2022/04/02 04:31:38;;;;;;;6.33;3.90;;;;;;;-0.07;73.79;101516.47;5058971;28;20039;-79
2022/04/02 04:34:04;;;;;;;5.77;3.63;;;;;;;-0.11;73.62;101517.69;5058341;28;20302;-78
2022/04/02 04:36:30;;;;;;;6.20;3.63;;;;;;;-0.11;73.93;101523.03;5070906;28;20131;-78
2022/04/02 04:38:56;;;;;;;8.03;3.80;;;;;;;-0.07;74.65;101527.13;5058059;28;20040;-84
2022/04/02 04:41:22;;;;;;;4.80;3.27;;;;;;;-0.12;74.49;101522.19;5058498;28;20046;-82
2022/04/02 04:43:48;;;;;;;6.17;3.67;;;;;;;-0.08;74.08;101526.31;5058510;28;20298;-89
2022/04/02 04:46:15;;;;;;;5.80;3.57;;;;;;;-0.13;74.14;101522.31;5058210;28;20178;-78
2022/04/02 04:48:40;;;;;;;5.27;3.37;;;;;;;-0.22;73.40;101507.94;5058876;28;20294;-81
2022/04/02 04:51:06;;;;;;;7.07;3.50;;;;;;;-0.19;73.86;101519.19;5058364;28;20343;-82
2022/04/02 04:53:32;;;;;;;6.03;3.33;;;;;;;-0.25;73.98;101510.84;5058454;28;20131;-82
2022/04/02 04:55:58;;;;;;;6.27;3.80;;;;;;;-0.20;73.49;101521.97;5058640;28;20287;-81
2022/04/02 04:58:23;;;;;;;6.47;3.77;;;;;;;-0.25;73.89;101517.00;5071430;28;20048;-82
2022/04/02 05:00:49;;;;;;;5.60;3.40;;;;;;;-0.23;73.99;101527.53;5058615;28;20142;-84
2022/04/02 05:03:14;;;;;;;6.63;3.20;;;;;;;-0.08;73.88;101565.41;5056734;28;20187;-79
2022/04/02 05:05:39;;;;;;;5.43;3.23;;;;;;;-0.29;74.21;101531.53;5058307;28;20056;-82
2022/04/02 05:08:06;;;;;;;5.70;3.50;;;;;;;-0.29;74.73;101528.88;5058789;28;20102;-83
2022/04/02 05:10:33;;;;;;;5.97;3.50;;;;;;;-0.34;74.53;101533.72;5059133;28;20084;-79
2022/04/02 05:12:58;;;;;;;4.63;3.37;;;;;;;-0.30;75.19;101545.84;5073876;28;20293;-82
2022/04/02 05:15:24;;;;;;;7.73;3.67;;;;;;;-0.11;74.81;101565.66;5056913;28;20294;-83
2022/04/02 05:17:49;;;;;;;6.90;3.53;;;;;;;-0.22;74.32;101559.41;5058478;28;20098;-82
2022/04/02 05:20:15;;;;;;;5.27;3.27;;;;;;;-0.23;74.48;101557.69;5055059;28;20048;-82
2022/04/02 05:22:41;;;;;;;4.83;3.20;;;;;;;-0.37;74.37;101549.94;5058089;28;20105;-81
2022/04/02 05:25:07;;;;;;;6.90;3.57;;;;;;;-0.33;74.62;101555.88;5058484;28;20025;-79
2022/04/02 05:27:33;;;;;;;5.30;3.53;;;;;;;-0.39;74.72;101547.41;5058759;28;20769;-78
2022/04/02 05:30:00;;;;;;;6.30;3.50;;;;;;;-0.41;74.93;101549.38;5057129;28;20051;-83
2022/04/02 05:32:28;;;;;;;6.57;3.67;;;;;;;-0.17;74.70;101597.13;5058229;28;20297;-83
2022/04/02 05:34:54;;;;;;;5.90;3.60;;;;;;;-0.22;74.53;101580.69;5058586;28;20381;-83
2022/04/02 05:37:20;;;;;;;5.43;3.30;;;;;;;-0.27;74.24;101580.22;5072794;28;20752;-79
2022/04/02 05:39:46;;;;;;;5.57;3.40;;;;;;;-0.30;75.10;101577.81;5057098;28;20039;-80
2022/04/02 05:42:12;;;;;;;6.37;3.60;;;;;;;-0.20;74.51;101593.88;5050519;28;20031;-78
2022/04/02 05:44:38;;;;;;;7.57;3.53;;;;;;;-0.19;74.95;101596.44;5058435;28;20044;-83
2022/04/02 05:47:04;;;;;;;7.57;3.60;;;;;;;-0.26;75.40;101595.22;5057246;28;20492;-83
2022/04/02 05:49:31;;;;;;;5.07;3.40;;;;;;;-0.22;75.15;101602.00;5059605;28;20302;-79
2022/04/02 05:51:57;;;;;;;5.10;3.43;;;;;;;-0.19;75.52;101601.75;5062358;28;20372;-85
2022/04/02 05:54:22;;;;;;;6.07;3.50;;;;;;;-0.04;74.81;101625.44;5061558;28;20291;-82
2022/04/02 05:56:48;;;;;;;7.20;3.40;;;;;;;-0.27;75.40;101587.34;5077037;28;20100;-80
2022/04/02 05:59:13;;;;;;;7.90;3.67;;;;;;;-0.14;75.16;101605.88;5061884;28;20032;-84
2022/04/02 06:01:39;;;;;;;8.10;3.57;;;;;;;-0.17;75.48;101604.28;5060273;28;20037;-84
2022/04/02 06:04:05;;;;;;;6.33;3.47;;;;;;;-0.18;75.67;101603.47;5059393;28;20044;-82
2022/04/02 06:06:30;;;;;;;6.87;3.80;;;;;;;0.01;75.28;101633.09;5058830;28;20429;-85
2022/04/02 06:08:57;;;;;;;6.83;3.70;;;;;;;-0.02;75.50;101621.69;5061285;28;20037;-83
2022/04/02 06:11:23;;;;;;;6.73;3.57;;;;;;;-0.08;75.42;101608.88;5058569;28;20041;-78
2022/04/02 06:13:49;;;;;;;7.63;3.47;;;;;;;-0.07;75.88;101609.72;5081684;28;20279;-84
2022/04/02 06:16:14;;;;;;;7.73;3.60;;;;;;;-0.04;75.69;101621.00;5075790;28;20770;-83
2022/04/02 06:18:40;;;;;;;5.20;3.67;;;;;;;0.19;75.55;101652.94;5076871;28;20035;-81
2022/04/02 06:21:05;;;;;;;7.07;3.67;;;;;;;0.04;75.20;101624.84;5060755;28;20525;-81
2022/04/02 06:23:32;;;;;;;8.60;3.87;;;;;;;0.11;75.43;101640.22;5061166;28;20652;-82
2022/04/02 06:25:58;;;;;;;9.70;3.60;;;;;;;0.13;75.27;101632.09;5061522;28;20050;-79
2022/04/02 06:28:23;;;;;;;8.93;3.80;;;;;;;0.17;75.50;101634.38;5060502;28;20351;-81
2022/04/02 06:30:56;;;;;;;7.10;4.03;;;;;;;0.26;75.46;101640.81;5061409;28;20083;-80
2022/04/02 06:33:21;;;;;;;7.07;3.63;;;;;;;0.24;75.20;101634.72;5060673;28;20032;-83
2022/04/02 06:35:47;;;;;;;7.80;4.00;;;;;;;0.32;74.50;101637.63;5061182;28;20055;-86
2022/04/02 06:38:13;;;;;;;6.33;4.00;;;;;;;0.48;74.73;101655.06;5075843;28;20041;-82
2022/04/02 06:40:39;;;;;;;8.67;3.90;;;;;;;0.44;74.89;101634.94;5076174;28;20032;-81
2022/04/02 06:43:05;;;;;;;8.80;4.00;;;;;;;0.64;73.78;101678.63;5060430;28;20331;-83
2022/04/02 06:45:30;;;;;;;5.93;3.80;;;;;;;0.48;74.20;101642.56;5061630;28;20033;-79
2022/04/02 06:47:55;;;;;;;7.17;3.80;;;;;;;0.61;74.17;101655.75;5058817;28;20044;-82
2022/04/02 06:50:21;;;;;;;8.57;3.80;;;;;;;0.70;74.61;101664.78;5060477;28;20888;-82
2022/04/02 06:52:46;;;;;;;7.90;4.00;;;;;;;0.77;74.54;101663.28;5070214;28;20039;-82
2022/04/02 06:55:13;;;;;;;7.37;4.07;;;;;;;0.72;74.41;101659.31;5078833;28;20032;-77
2022/04/02 06:58:05;;;;;;;6.00;3.73;;;;;;;0.98;74.36;101686.50;5092894;28;20310;-83
2022/04/02 07:00:31;;;;;;;6.83;3.73;;;;;;;0.98;73.68;101686.50;5056058;28;20699;-78
2022/04/02 07:02:57;;;;;;;6.10;3.67;;;;;;;1.03;73.21;101689.63;5059742;28;20372;-77
2022/04/02 07:05:22;;;;;;;8.80;3.67;;;;;;;1.14;73.52;101705.59;5059983;28;20029;-78
2022/04/02 07:07:49;;;;;;;5.93;3.60;;;;;;;1.16;73.01;101706.31;5060309;28;20053;-80
2022/04/02 07:10:15;;;;;;;5.50;3.57;;;;;;;1.12;73.23;101680.84;5058499;28;20032;-82
2022/04/02 07:12:40;;;;;;;5.97;3.80;;;;;;;1.27;72.89;101713.41;5058355;28;20036;-80
2022/04/02 07:15:07;;;;;;;8.13;3.87;;;;;;;1.16;72.68;101679.63;5060408;28;20036;-79
2022/04/02 07:17:34;;;;;;;6.17;3.80;;;;;;;1.44;72.04;101709.34;5060132;28;20072;-84
2022/04/02 07:20:00;;;;;;;8.20;3.83;;;;;;;1.46;72.92;101712.69;5060435;28;20306;-81
2022/04/02 07:22:26;;;;;;;6.53;3.90;;;;;;;1.51;73.32;101717.66;5057184;28;20048;-81
2022/04/02 07:24:54;;;;;;;6.90;4.00;;;;;;;1.53;72.47;101718.38;5059879;28;20445;-79
2022/04/02 07:27:26;;;;;;;8.57;3.80;;;;;;;1.51;71.14;101704.31;5059358;28;20217;-79
2022/04/02 07:29:52;;;;;;;10.80;3.90;;;;;;;1.61;71.54;101707.88;5060169;28;20036;-79
2022/04/02 07:32:18;;;;;;;5.83;4.07;;;;;;;1.78;71.44;101727.81;5051087;28;20487;-81
2022/04/02 07:34:43;;;;;;;8.40;3.90;;;;;;;1.80;70.59;101720.50;5059294;28;20033;-81
2022/04/02 07:37:46;;;;;;;7.43;3.80;;;;;;;1.98;69.77;101739.41;5059902;28;20039;-82
2022/04/02 07:40:28;;;;;;;8.33;3.70;;;;;;;2.01;69.00;101732.97;5059944;28;20036;-81
2022/04/02 07:43:04;;;;;;;6.60;3.87;;;;;;;2.07;69.68;101732.44;5059908;28;20036;-82
2022/04/02 07:45:41;;;;;;;8.10;3.60;;;;;;;2.26;70.00;101741.50;5059741;28;20345;-83
2022/04/02 07:48:10;;;;;;;7.73;3.90;;;;;;;2.32;69.17;101749.00;5059873;28;20040;-84
2022/04/02 07:50:41;;;;;;;5.63;3.73;;;;;;;2.42;67.53;101747.22;5059895;28;20033;-83
2022/04/02 07:53:14;;;;;;;6.53;3.80;;;;;;;2.43;68.11;101746.22;5059371;28;20032;-83
2022/04/02 07:55:41;;;;;;;7.73;4.00;;;;;;;2.48;68.43;101749.34;5067124;28;20111;-78
2022/04/02 07:58:13;;;;;;;9.00;4.07;;;;;;;2.36;67.24;101731.69;5090129;28;20043;-78
2022/04/02 08:00:39;;;;;;;7.07;4.13;;;;;;;2.50;68.45;101743.84;5070601;28;20482;-78
2022/04/02 08:03:08;;;;;;;7.50;4.23;;;;;;;2.71;67.84;101762.50;5077335;28;20016;-78
2022/04/02 08:05:34;;;;;;;8.43;4.53;;;;;;;2.77;67.69;101761.94;5057824;28;20085;-77
2022/04/02 08:08:00;;;;;;;8.43;5.57;;;;;;;2.91;68.67;101768.75;5089253;28;20040;-78
2022/04/02 08:10:28;;;;;;;8.67;4.63;;;;;;;2.96;67.11;101762.94;5062931;28;20037;-83
2022/04/02 08:12:57;;;;;;;7.03;4.53;;;;;;;2.96;66.60;101770.97;5073355;28;20068;-82
2022/04/02 08:15:24;;;;;;;8.97;4.80;;;;;;;2.73;65.97;101733.75;5059346;28;20033;-84
2022/04/02 08:17:53;;;;;;;7.97;4.67;;;;;;;2.93;67.90;101757.88;5041288;28;20153;-82
2022/04/02 08:20:19;;;;;;;10.10;5.20;;;;;;;3.06;67.04;101754.91;5059419;28;20039;-81
2022/04/02 08:22:45;;;;;;;6.87;4.03;;;;;;;3.08;66.20;101759.16;5059374;28;20056;-80
2022/04/02 08:25:11;;;;;;;6.10;4.47;;;;;;;2.99;65.19;101727.84;5059304;28;20044;-83
2022/04/02 08:28:00;;;;;;;8.80;5.00;;;;;;;3.15;66.34;101749.56;5058597;28;20210;-80
2022/04/02 08:30:31;;;;;;;8.10;4.53;;;;;;;3.47;66.62;101774.41;5058460;28;20037;-83
2022/04/02 08:33:16;;;;;;;7.53;4.83;;;;;;;3.58;68.73;101754.63;5057324;28;20036;-83
2022/04/02 08:36:09;;;;;;;8.23;4.78;;;;;;;3.79;66.03;101773.22;5059002;28;20114;-86
2022/04/02 08:38:34;;;;;;;6.97;4.73;;;;;;;3.83;64.40;101770.09;5071082;28;20200;-82
2022/04/02 08:41:38;;;;;;;8.63;4.50;;;;;;;4.02;66.77;101754.94;5059746;28;20029;-82
2022/04/02 08:44:28;;;;;;;6.90;4.30;;;;;;;4.14;64.85;101785.13;5062150;28;20025;-79
2022/04/02 08:47:22;;;;;;;8.37;4.43;;;;;;;3.88;63.28;101749.06;5079262;28;20060;-78
2022/04/02 08:49:50;;;;;;;8.13;4.40;;;;;;;3.93;63.67;101780.81;5072978;28;20032;-78
2022/04/02 08:52:15;;;;;;;8.97;5.30;;;;;;;3.85;63.37;101781.53;5073466;28;20410;-77
2022/04/02 08:55:07;;;;;;;7.87;5.33;;;;;;;3.87;64.54;101792.94;5074736;28;20028;-78
2022/04/02 08:57:52;;;;;;;7.57;4.73;;;;;;;3.78;64.48;101780.41;5083045;28;20028;-80
2022/04/02 09:00:26;;;;;;;7.30;4.50;;;;;;;3.70;64.16;101797.22;5056226;28;20748;-80
2022/04/02 09:03:35;;;;;;;8.93;4.60;;;;;;;3.79;65.01;101800.03;5069017;28;20028;-83
2022/04/02 09:06:23;;;;;;;7.13;4.30;;;;;;;3.63;65.55;101771.13;5058876;28;20377;-80
2022/04/02 09:08:48;;;;;;;6.60;4.67;;;;;;;3.86;64.67;101815.41;5056739;28;20029;-85
2022/04/02 09:11:26;;;;;;;9.37;4.80;;;;;;;4.00;65.32;101807.88;5057901;28;20529;-85
2022/04/02 09:14:46;;;;;;;8.13;4.47;;;;;;;4.23;64.72;101809.22;5058760;28;20361;-85
2022/04/02 09:17:52;;;;;;;9.97;4.33;;;;;;;4.37;63.65;101810.56;5051396;28;20048;-86
2022/04/02 09:20:38;;;;;;;7.93;4.30;;;;;;;4.57;63.36;101811.34;5039132;28;20037;-79
2022/04/02 09:23:19;;;;;;;8.20;4.37;;;;;;;4.63;63.90;101826.00;5051433;28;20048;-84
2022/04/02 09:26:22;;;;;;;7.37;4.10;;;;;;;4.82;62.77;101825.06;5058245;28;20041;-79
2022/04/02 09:29:06;;;;;;;8.23;4.03;;;;;;;4.77;61.24;101811.25;5059053;28;20047;-90
2022/04/02 09:31:54;;;;;;;7.77;4.00;;;;;;;4.72;60.05;101817.06;5058926;28;20036;-88
2022/04/02 09:34:44;;;;;;;9.30;4.73;;;;;;;4.63;61.17;101839.44;5059163;28;20078;-81
2022/04/02 09:37:24;;;;;;;7.67;5.57;;;;;;;4.54;61.20;101829.56;5060080;28;20050;-83
2022/04/02 09:40:10;;;;;;;6.63;4.43;;;;;;;4.46;59.76;101835.69;5072358;28;20046;-82
2022/04/02 09:42:43;;;;;;;10.47;4.50;;;;;;;4.36;60.93;101841.06;5059373;28;20371;-84
2022/04/02 09:45:09;;;;;;;7.00;4.27;;;;;;;4.33;61.05;101827.13;5058346;28;20036;-83
2022/04/02 09:48:12;;;;;;;7.57;4.50;;;;;;;4.81;62.99;101830.59;5060718;28;20028;-80
2022/04/02 09:50:37;;;;;;;7.77;4.53;;;;;;;5.18;61.69;101827.81;5059826;28;20120;-83
2022/04/02 09:53:32;;;;;;;8.70;4.40;;;;;;;5.71;60.42;101834.19;5060333;28;20029;-86
2022/04/02 09:56:09;;;;;;;7.67;4.30;;;;;;;6.07;60.83;101830.63;5060948;28;20036;-83
2022/04/02 09:58:54;;;;;;;7.97;4.37;;;;;;;6.21;57.05;101832.72;5061129;28;20104;-80
2022/04/02 10:01:27;;;;;;;8.00;4.60;;;;;;;6.19;56.45;101826.66;5058511;28;20036;-86
2022/04/02 10:04:07;;;;;;;6.80;4.30;;;;;;;6.18;58.79;101833.03;5076347;28;20355;-80
2022/04/02 10:06:40;;;;;;;6.07;4.07;;;;;;;5.83;57.58;101796.28;5065105;28;20112;-83
2022/04/02 10:09:17;;;;;;;8.07;4.33;;;;;;;5.77;57.50;101816.59;5057080;28;20679;-85
2022/04/02 10:11:58;;;;;;;8.03;4.43;;;;;;;5.56;58.56;101803.47;5058360;28;20123;-79
2022/04/02 10:14:25;;;;;;;7.67;4.30;;;;;;;5.39;59.31;101814.06;5056957;28;20125;-81
2022/04/02 10:16:56;;;;;;;10.07;4.80;;;;;;;5.45;61.02;101817.97;5069918;28;20035;-83
2022/04/02 10:19:26;;;;;;;7.20;6.10;;;;;;;5.18;60.28;101810.84;5071154;28;20055;-85
2022/04/02 10:21:56;;;;;;;8.47;5.60;;;;;;;5.04;60.13;101801.47;5080072;28;20048;-81
2022/04/02 10:24:48;;;;;;;6.87;4.37;;;;;;;5.06;60.77;101789.59;5075415;28;20059;-79
2022/04/02 10:27:29;;;;;;;8.17;4.80;;;;;;;4.88;59.72;101819.09;5081763;28;20020;-79
2022/04/02 10:30:06;;;;;;;10.27;5.60;;;;;;;4.81;59.81;101823.38;5071188;28;20039;-82
2022/04/02 10:32:53;;;;;;;9.03;5.20;;;;;;;4.74;59.39;101830.34;5061947;28;20509;-84
2022/04/02 10:35:22;;;;;;;6.53;4.57;;;;;;;4.38;59.19;101806.06;5067597;28;20162;-84
2022/04/02 10:38:09;;;;;;;7.67;4.30;;;;;;;4.55;61.04;101826.75;5056595;28;20036;-83
2022/04/02 10:40:48;;;;;;;6.70;5.20;;;;;;;4.25;60.67;101787.59;5059573;28;20028;-86
2022/04/02 10:43:30;;;;;;;6.60;5.20;;;;;;;4.19;61.14;101781.00;5055981;28;20041;-81
2022/04/02 10:45:57;;;;;;;8.23;4.63;;;;;;;4.21;60.75;101805.00;5069387;28;20028;-84
2022/04/02 10:48:34;;;;;;;7.93;4.00;;;;;;;4.23;59.81;101819.13;5074320;28;20053;-81
2022/04/02 10:51:07;;;;;;;6.70;4.40;;;;;;;3.74;60.15;101779.00;5077035;28;20908;-80
2022/04/02 10:53:40;;;;;;;8.00;4.30;;;;;;;3.77;60.47;101778.72;5063492;28;20420;-84
2022/04/02 10:56:15;;;;;;;9.00;4.05;;;;;;;3.82;59.22;101789.88;5075139;28;20039;-81
2022/04/02 10:58:45;;;;;;;;;;;;;;;4.19;61.44;101812.34;5062272;28;20035;-82
2022/04/02 11:01:12;;;;;;;5.60;4.37;;;;;;;3.95;60.30;101784.19;5076187;28;19920;-85
2022/04/02 11:03:39;;;;;;;7.00;4.10;;;;;;;3.96;60.04;101775.16;5061072;28;20512;-79
2022/04/02 11:06:06;;;;;;;7.50;4.40;;;;;;;4.16;60.57;101777.75;5061154;28;20031;-78
2022/04/02 11:08:32;;;;;;;7.13;4.00;;;;;;;4.27;59.58;101782.09;5073502;28;20476;-80
2022/04/02 11:11:21;;;;;;;6.87;4.20;;;;;;;4.63;59.08;101804.53;5073302;28;20078;-79
2022/04/02 11:13:51;;;;;;;7.63;4.00;;;;;;;4.53;57.82;101779.59;5077847;28;20028;-83
2022/04/02 11:16:23;;;;;;;8.43;5.13;;;;;;;4.53;57.68;101772.38;5058939;28;20041;-88
2022/04/02 11:22:01;;;;;;;4.53;3.50;;;;;;;4.47;56.73;101782.88;5061825;28;20599;-87
2022/04/02 11:24:32;;;;;;;6.20;3.90;;;;;;;4.54;57.09;101789.31;5061377;28;20450;-84
2022/04/02 11:27:01;;;;;;;5.47;3.70;;;;;;;4.64;57.55;101778.56;5077127;28;20472;-80
2022/04/02 11:29:33;;;;;;;5.87;3.27;;;;;;;4.62;54.54;101772.47;5066048;28;20484;-79
2022/04/02 11:32:01;;;;;;;4.07;3.30;;;;;;;4.98;54.31;101775.25;5062952;28;20383;-85
2022/04/02 11:34:28;;;;;;;5.53;3.20;;;;;;;5.40;52.70;101771.94;5061178;28;20036;-82
2022/04/02 11:37:03;;;;;;;5.03;3.23;;;;;;;5.91;52.18;101799.03;5062559;28;20376;-80
2022/04/02 11:39:46;;;;;;;3.73;2.77;;;;;;;6.44;51.34;101807.94;5061274;28;20145;-80
2022/04/02 11:42:14;;;;;;;4.17;3.10;;;;;;;6.59;52.93;101771.34;5060240;28;20124;-86
2022/04/02 11:44:51;;;;;;;4.83;3.00;;;;;;;6.64;49.20;101778.09;5073195;28;20024;-85
2022/04/02 11:47:29;;;;;;;4.23;2.97;;;;;;;6.61;48.15;101797.25;5060440;28;20036;-86
2022/04/02 11:50:04;;;;;;;5.23;2.83;;;;;;;6.44;49.64;101802.56;5063838;28;20032;-81
2022/04/02 11:52:49;;;;;;;3.60;2.83;;;;;;;6.33;49.99;101784.03;5063034;28;20025;-85